K&a Sp — 3FVZ3 — position and weather

sailwx.info

Track history (hours):
 
Tides and Currents Weather Stations Pressure Air Temp Water Temp Dewpoint Dewpoint Depression Visibility Wind Speed Wind Dir Waves Ship Positions

K&a Sp

Last reported at 2016-May-27 20:11 UTC. Time now 2016-May-31 18:01 UTC.
Position S 04°08' E 115°34'.

Length 177 m; draft 10.3 m.

Type: Cargo ship. MMSI: 354085000.

Date/timePositionNaut miles runAvg speedWind from/ knotsBaromVisibWave heightAir tempDewpointWater temp
2016-May-27 20:11S 04°08' E 115°34'911.9
2016-May-27 19:27S 04°07' E 115°26'  
2016-May-22 03:33N 01°15' E 104°04'1010.0
2016-May-22 02:33N 01°15' E 103°54'1 0.8
2016-May-22 01:15N 01°16' E 103°54'0 0.0
2016-May-22 00:33N 01°16' E 103°54'0 0.0
2016-May-21 23:33N 01°16' E 103°54'0 0.0
2016-May-21 22:27N 01°16' E 103°54'0 0.1
2016-May-21 21:15N 01°16' E 103°54'0 0.0
2016-May-21 20:21N 01°16' E 103°54'0 0.0
2016-May-21 19:33N 01°16' E 103°54'0 0.0
2016-May-21 18:33N 01°16' E 103°54'0 0.0
2016-May-21 17:27N 01°16' E 103°54'0 0.1
2016-May-21 16:33N 01°16' E 103°54'0 0.1
2016-May-21 15:33N 01°16' E 103°54'0 0.1
2016-May-21 14:33N 01°16' E 103°54'0 0.0
2016-May-21 13:33N 01°16' E 103°54'0 0.1
2016-May-21 12:33N 01°16' E 103°54'0 0.1
2016-May-21 11:21N 01°16' E 103°54'0 0.1
2016-May-21 09:33N 01°16' E 103°54'0 0.0
2016-May-21 08:27N 01°16' E 103°54'0 0.0
2016-May-21 07:21N 01°16' E 103°54'0 0.0
2016-May-21 06:27N 01°16' E 103°54'0 0.0
2016-May-21 05:33N 01°16' E 103°54'0 0.0
2016-May-21 04:21N 01°16' E 103°54'0 0.0
2016-May-21 03:33N 01°16' E 103°54'0 0.0
2016-May-21 01:30N 01°16' E 103°54'0 0.0
2016-May-21 00:33N 01°16' E 103°54'0 0.0
2016-May-20 23:33N 01°16' E 103°54'0 0.0
2016-May-20 22:33N 01°16' E 103°54'0 0.0
2016-May-20 21:33N 01°16' E 103°54'0 0.1
2016-May-20 20:30N 01°16' E 103°54'0 0.0
2016-May-20 19:33N 01°16' E 103°54'0 0.0
2016-May-20 18:33N 01°16' E 103°54'0 0.0
2016-May-20 17:33N 01°16' E 103°54'0 0.0
2016-May-20 16:33N 01°16' E 103°54'0 0.0
2016-May-20 15:27N 01°16' E 103°54'0 0.1
2016-May-20 14:33N 01°16' E 103°54'0 0.1
2016-May-20 13:33N 01°16' E 103°54'0 0.0
2016-May-20 12:30N 01°16' E 103°54'0 0.0
2016-May-20 11:33N 01°16' E 103°54'0 0.1
2016-May-20 10:21N 01°16' E 103°54'0 0.1
2016-May-20 09:33N 01°16' E 103°54'0 0.1
2016-May-20 08:33N 01°16' E 103°54'0 0.0
2016-May-20 07:33N 01°16' E 103°54'1 0.6
2016-May-20 06:33N 01°15' E 103°54'7 7.3
2016-May-20 05:33N 01°14' E 103°47'5 5.4
2016-May-20 04:33N 01°18' E 103°43'0 0.0
2016-May-20 03:29N 01°18' E 103°43'0 0.0
2016-May-20 02:32N 01°18' E 103°43'0 0.0
2016-May-20 01:32N 01°18' E 103°43'0 0.0
2016-May-20 00:20N 01°18' E 103°43'0 0.0
2016-May-19 23:29N 01°18' E 103°43'0 0.0
2016-May-19 22:29N 01°18' E 103°43'0 0.0
2016-May-19 21:29N 01°18' E 103°43'0 0.0
2016-May-19 20:32N 01°18' E 103°43'0 0.0
2016-May-19 19:29N 01°18' E 103°43'0 0.0
2016-May-19 18:29N 01°18' E 103°43'0 0.0
2016-May-19 17:23N 01°18' E 103°43'0 0.0
2016-May-19 16:29N 01°18' E 103°43'0 0.0
2016-May-19 15:26N 01°18' E 103°43'0 0.0
2016-May-19 14:17N 01°18' E 103°43'0 0.0
2016-May-19 13:31N 01°18' E 103°43'0 0.0
2016-May-19 12:31N 01°18' E 103°43'0 0.0
2016-May-19 11:32N 01°18' E 103°43'0 0.0
2016-May-19 10:31N 01°18' E 103°43'0 0.0
2016-May-19 09:31N 01°18' E 103°43'0 0.0
2016-May-19 08:29N 01°18' E 103°43'0 0.0
2016-May-19 07:31N 01°18' E 103°43'0 0.0
2016-May-19 06:28N 01°18' E 103°43'0 0.0
2016-May-19 05:31N 01°18' E 103°43'0 0.0
2016-May-19 04:25N 01°18' E 103°43'0 0.0
2016-May-19 03:16N 01°18' E 103°43'0 0.0
2016-May-19 02:31N 01°18' E 103°43'0 0.0
2016-May-19 01:31N 01°18' E 103°43'0 0.0
2016-May-19 00:28N 01°18' E 103°43'0 0.0
2016-May-18 23:31N 01°18' E 103°43'0 0.0
2016-May-18 22:28N 01°18' E 103°43'0 0.0
2016-May-18 21:31N 01°18' E 103°43'0 0.0
2016-May-18 20:31N 01°18' E 103°43'0 0.0
2016-May-18 19:31N 01°18' E 103°43'0 0.0
2016-May-18 18:28N 01°18' E 103°43'0 0.0
2016-May-18 17:31N 01°18' E 103°43'0 0.0
2016-May-18 16:28N 01°18' E 103°43'0 0.0
2016-May-18 15:31N 01°18' E 103°43'0 0.0
2016-May-18 14:31N 01°18' E 103°43'0 0.0
2016-May-18 13:25N 01°18' E 103°43'0 0.0
2016-May-18 12:13N 01°18' E 103°43'0 0.0
2016-May-18 11:31N 01°18' E 103°43'0 0.0
2016-May-18 10:31N 01°18' E 103°43'0 0.0
2016-May-18 09:31N 01°18' E 103°43'0 0.0
2016-May-18 08:31N 01°18' E 103°43'0 0.0
2016-May-18 07:25N 01°18' E 103°43'0 0.0
2016-May-18 06:22N 01°18' E 103°43'0 0.0
2016-May-18 05:28N 01°18' E 103°43'0 0.0
2016-May-18 04:28N 01°18' E 103°43'0 0.0
2016-May-18 03:31N 01°18' E 103°43'0 0.0
2016-May-18 02:22N 01°18' E 103°43'0 0.0
2016-May-18 01:22N 01°18' E 103°43'0 0.0
2016-May-18 00:25N 01°18' E 103°43'0 0.0
2016-May-17 23:16N 01°18' E 103°43'0 0.0
2016-May-17 22:31N 01°18' E 103°43'0 0.0
2016-May-17 21:31N 01°18' E 103°43'0 0.0
2016-May-17 20:28N 01°18' E 103°43'  
Track history (hours):
 
Tides and Currents Weather Stations Pressure Air Temp Water Temp Dewpoint Dewpoint Depression Visibility Wind Speed Wind Dir Waves Ship Positions

K&a Sp

Last reported at 2016-May-27 20:11 UTC. Time now 2016-May-31 18:01 UTC.
Position S 04°08' E 115°34'.

Length 177 m; draft 10.3 m.

Type: Cargo ship. MMSI: 354085000.

Date/timePositionNaut miles runAvg speedWind from/ knotsBaromVisibWave heightAir tempDewpointWater temp
2016-May-27 20:11S 04°08' E 115°34'911.9
2016-May-27 19:27S 04°07' E 115°26'  
2016-May-22 03:33N 01°15' E 104°04'1010.0
2016-May-22 02:33N 01°15' E 103°54'1 0.8
2016-May-22 01:15N 01°16' E 103°54'0 0.0
2016-May-22 00:33N 01°16' E 103°54'0 0.0
2016-May-21 23:33N 01°16' E 103°54'0 0.0
2016-May-21 22:27N 01°16' E 103°54'0 0.1
2016-May-21 21:15N 01°16' E 103°54'0 0.0
2016-May-21 20:21N 01°16' E 103°54'0 0.0
2016-May-21 19:33N 01°16' E 103°54'0 0.0
2016-May-21 18:33N 01°16' E 103°54'0 0.0
2016-May-21 17:27N 01°16' E 103°54'0 0.1
2016-May-21 16:33N 01°16' E 103°54'0 0.1
2016-May-21 15:33N 01°16' E 103°54'0 0.1
2016-May-21 14:33N 01°16' E 103°54'0 0.0
2016-May-21 13:33N 01°16' E 103°54'0 0.1
2016-May-21 12:33N 01°16' E 103°54'0 0.1
2016-May-21 11:21N 01°16' E 103°54'0 0.1
2016-May-21 09:33N 01°16' E 103°54'0 0.0
2016-May-21 08:27N 01°16' E 103°54'0 0.0
2016-May-21 07:21N 01°16' E 103°54'0 0.0
2016-May-21 06:27N 01°16' E 103°54'0 0.0
2016-May-21 05:33N 01°16' E 103°54'0 0.0
2016-May-21 04:21N 01°16' E 103°54'0 0.0
2016-May-21 03:33N 01°16' E 103°54'0 0.0
2016-May-21 01:30N 01°16' E 103°54'0 0.0
2016-May-21 00:33N 01°16' E 103°54'0 0.0
2016-May-20 23:33N 01°16' E 103°54'0 0.0
2016-May-20 22:33N 01°16' E 103°54'0 0.0
2016-May-20 21:33N 01°16' E 103°54'0 0.1
2016-May-20 20:30N 01°16' E 103°54'0 0.0
2016-May-20 19:33N 01°16' E 103°54'0 0.0
2016-May-20 18:33N 01°16' E 103°54'0 0.0
2016-May-20 17:33N 01°16' E 103°54'0 0.0
2016-May-20 16:33N 01°16' E 103°54'0 0.0
2016-May-20 15:27N 01°16' E 103°54'0 0.1
2016-May-20 14:33N 01°16' E 103°54'0 0.1
2016-May-20 13:33N 01°16' E 103°54'0 0.0
2016-May-20 12:30N 01°16' E 103°54'0 0.0
2016-May-20 11:33N 01°16' E 103°54'0 0.1
2016-May-20 10:21N 01°16' E 103°54'0 0.1
2016-May-20 09:33N 01°16' E 103°54'0 0.1
2016-May-20 08:33N 01°16' E 103°54'0 0.0
2016-May-20 07:33N 01°16' E 103°54'1 0.6
2016-May-20 06:33N 01°15' E 103°54'7 7.3
2016-May-20 05:33N 01°14' E 103°47'5 5.4
2016-May-20 04:33N 01°18' E 103°43'0 0.0
2016-May-20 03:29N 01°18' E 103°43'0 0.0
2016-May-20 02:32N 01°18' E 103°43'0 0.0
2016-May-20 01:32N 01°18' E 103°43'0 0.0
2016-May-20 00:20N 01°18' E 103°43'0 0.0
2016-May-19 23:29N 01°18' E 103°43'0 0.0
2016-May-19 22:29N 01°18' E 103°43'0 0.0
2016-May-19 21:29N 01°18' E 103°43'0 0.0
2016-May-19 20:32N 01°18' E 103°43'0 0.0
2016-May-19 19:29N 01°18' E 103°43'0 0.0
2016-May-19 18:29N 01°18' E 103°43'0 0.0
2016-May-19 17:23N 01°18' E 103°43'0 0.0
2016-May-19 16:29N 01°18' E 103°43'0 0.0
2016-May-19 15:26N 01°18' E 103°43'0 0.0
2016-May-19 14:17N 01°18' E 103°43'0 0.0
2016-May-19 13:31N 01°18' E 103°43'0 0.0
2016-May-19 12:31N 01°18' E 103°43'0 0.0
2016-May-19 11:32N 01°18' E 103°43'0 0.0
2016-May-19 10:31N 01°18' E 103°43'0 0.0
2016-May-19 09:31N 01°18' E 103°43'0 0.0
2016-May-19 08:29N 01°18' E 103°43'0 0.0
2016-May-19 07:31N 01°18' E 103°43'0 0.0
2016-May-19 06:28N 01°18' E 103°43'0 0.0
2016-May-19 05:31N 01°18' E 103°43'0 0.0
2016-May-19 04:25N 01°18' E 103°43'0 0.0
2016-May-19 03:16N 01°18' E 103°43'0 0.0
2016-May-19 02:31N 01°18' E 103°43'0 0.0
2016-May-19 01:31N 01°18' E 103°43'0 0.0
2016-May-19 00:28N 01°18' E 103°43'0 0.0
2016-May-18 23:31N 01°18' E 103°43'0 0.0
2016-May-18 22:28N 01°18' E 103°43'0 0.0
2016-May-18 21:31N 01°18' E 103°43'0 0.0
2016-May-18 20:31N 01°18' E 103°43'0 0.0
2016-May-18 19:31N 01°18' E 103°43'0 0.0
2016-May-18 18:28N 01°18' E 103°43'0 0.0
2016-May-18 17:31N 01°18' E 103°43'0 0.0
2016-May-18 16:28N 01°18' E 103°43'0 0.0
2016-May-18 15:31N 01°18' E 103°43'0 0.0
2016-May-18 14:31N 01°18' E 103°43'0 0.0
2016-May-18 13:25N 01°18' E 103°43'0 0.0
2016-May-18 12:13N 01°18' E 103°43'0 0.0
2016-May-18 11:31N 01°18' E 103°43'0 0.0
2016-May-18 10:31N 01°18' E 103°43'0 0.0
2016-May-18 09:31N 01°18' E 103°43'0 0.0
2016-May-18 08:31N 01°18' E 103°43'0 0.0
2016-May-18 07:25N 01°18' E 103°43'0 0.0
2016-May-18 06:22N 01°18' E 103°43'0 0.0
2016-May-18 05:28N 01°18' E 103°43'0 0.0
2016-May-18 04:28N 01°18' E 103°43'0 0.0
2016-May-18 03:31N 01°18' E 103°43'0 0.0
2016-May-18 02:22N 01°18' E 103°43'0 0.0
2016-May-18 01:22N 01°18' E 103°43'0 0.0
2016-May-18 00:25N 01°18' E 103°43'0 0.0
2016-May-17 23:16N 01°18' E 103°43'0 0.0
2016-May-17 22:31N 01°18' E 103°43'0 0.0
2016-May-17 21:31N 01°18' E 103°43'0 0.0
2016-May-17 20:28N 01°18' E 103°43'  

Dump ship's entire track history